createdAt,value
2023-05-16T00:01:35.932Z,12.80
2023-05-16T00:04:08.983Z,12.75
2023-05-16T00:06:42.167Z,12.68
2023-05-16T00:09:14.999Z,12.65
2023-05-16T00:11:48.643Z,12.65
2023-05-16T00:14:22.106Z,12.64
2023-05-16T00:16:57.550Z,12.63
2023-05-16T00:19:30.782Z,12.59
2023-05-16T00:22:03.591Z,12.52
2023-05-16T00:24:37.051Z,12.45
2023-05-16T00:27:10.309Z,12.39
2023-05-16T00:29:43.090Z,12.34
2023-05-16T00:32:15.873Z,12.28
2023-05-16T00:34:48.776Z,12.25
2023-05-16T00:37:22.720Z,12.26
2023-05-16T00:39:55.582Z,12.28
2023-05-16T00:42:28.456Z,12.30
2023-05-16T00:45:02.986Z,12.34
2023-05-16T00:47:36.687Z,12.34
2023-05-16T00:50:09.984Z,12.33
2023-05-16T00:52:43.015Z,12.29
2023-05-16T00:55:15.759Z,12.28
2023-05-16T00:57:48.997Z,12.26
2023-05-16T01:00:22.275Z,12.25
2023-05-16T01:02:55.395Z,12.22
2023-05-16T01:05:28.754Z,12.22
2023-05-16T01:08:01.702Z,12.26
2023-05-16T01:10:42.196Z,12.28
2023-05-16T01:13:51.328Z,12.28
2023-05-16T01:16:47.366Z,12.27
2023-05-16T01:19:52.746Z,12.29
2023-05-16T01:22:57.984Z,12.28
2023-05-16T01:25:58.547Z,12.26
2023-05-16T01:28:32.375Z,12.32
2023-05-16T01:31:05.300Z,12.39
2023-05-16T01:33:38.269Z,12.39
2023-05-16T01:36:27.247Z,12.41
2023-05-16T01:39:22.455Z,12.43
2023-05-16T01:42:09.242Z,12.43
2023-05-16T01:44:46.756Z,12.46
2023-05-16T01:47:21.933Z,12.48
2023-05-16T01:50:18.111Z,12.49
2023-05-16T01:53:01.553Z,12.52
2023-05-16T01:55:50.963Z,12.54
2023-05-16T01:58:26.794Z,12.55
2023-05-16T02:01:07.575Z,12.55
2023-05-16T02:03:42.139Z,12.57
2023-05-16T02:06:15.067Z,12.56
2023-05-16T02:08:47.979Z,12.52
2023-05-16T02:11:23.557Z,12.52
2023-05-16T02:13:57.257Z,12.51
2023-05-16T02:16:32.641Z,12.49
2023-05-16T02:19:05.760Z,12.45
2023-05-16T02:21:39.059Z,12.43
2023-05-16T02:24:11.998Z,12.39
2023-05-16T02:26:44.788Z,12.34
2023-05-16T02:29:17.644Z,12.31
2023-05-16T02:31:50.785Z,12.35
2023-05-16T02:34:23.616Z,12.35
2023-05-16T02:36:56.467Z,12.35
2023-05-16T02:39:30.314Z,12.37
2023-05-16T02:42:03.273Z,12.39
2023-05-16T02:44:36.345Z,12.43
2023-05-16T02:47:09.102Z,12.48
2023-05-16T02:49:42.109Z,12.53
2023-05-16T02:52:14.898Z,12.56
2023-05-16T02:54:59.879Z,12.56
2023-05-16T02:57:22.328Z,12.57
2023-05-16T02:59:55.108Z,12.59
2023-05-16T03:02:28.118Z,12.62
2023-05-16T03:05:00.908Z,12.65
2023-05-16T03:07:34.452Z,12.70
2023-05-16T03:10:10.317Z,12.78
2023-05-16T03:12:44.370Z,12.85
2023-05-16T03:15:18.214Z,12.92
2023-05-16T03:17:51.328Z,12.99
2023-05-16T03:20:23.984Z,13.01
2023-05-16T03:22:56.779Z,13.00
2023-05-16T03:25:29.754Z,13.02
2023-05-16T03:28:03.542Z,13.10
2023-05-16T03:30:37.165Z,13.19
2023-05-16T03:33:10.240Z,13.30
2023-05-16T03:35:43.309Z,13.44
2023-05-16T03:38:17.350Z,13.53
2023-05-16T03:40:50.226Z,13.57
2023-05-16T03:43:23.615Z,13.57
2023-05-16T03:45:56.584Z,13.55
2023-05-16T03:48:29.971Z,13.52
2023-05-16T03:51:02.851Z,13.50
2023-05-16T03:53:35.897Z,13.49
2023-05-16T03:56:08.833Z,13.46
2023-05-16T03:58:41.797Z,13.43
2023-05-16T04:01:14.595Z,13.42
2023-05-16T04:03:47.454Z,13.39
2023-05-16T04:06:20.298Z,13.36
2023-05-16T04:08:52.973Z,13.42
2023-05-16T04:11:27.109Z,13.52
2023-05-16T04:14:02.115Z,13.68
2023-05-16T04:16:35.091Z,13.82
2023-05-16T04:19:08.351Z,13.96
2023-05-16T04:21:42.191Z,14.11
2023-05-16T04:24:15.269Z,14.25
2023-05-16T04:26:48.104Z,14.36
2023-05-16T04:29:21.705Z,14.43
2023-05-16T04:31:54.732Z,14.46
2023-05-16T04:34:28.194Z,14.51
2023-05-16T04:37:01.310Z,14.56
2023-05-16T04:39:34.819Z,14.61
2023-05-16T04:42:08.380Z,14.64
2023-05-16T04:44:42.612Z,14.69
2023-05-16T04:47:16.152Z,14.75
2023-05-16T04:49:49.045Z,14.81
2023-05-16T04:52:22.093Z,14.90
2023-05-16T04:54:54.900Z,15.01
2023-05-16T04:57:28.522Z,15.18
2023-05-16T05:00:01.255Z,15.52
2023-05-16T05:02:34.570Z,15.52
2023-05-16T05:05:09.624Z,15.70
2023-05-16T05:07:43.570Z,15.87
2023-05-16T05:10:16.809Z,16.02
2023-05-16T05:12:49.920Z,16.17
2023-05-16T05:15:23.265Z,16.32
2023-05-16T05:17:56.550Z,16.45
2023-05-16T05:20:30.264Z,16.56
2023-05-16T05:23:03.326Z,16.70
2023-05-16T05:25:38.178Z,16.81
2023-05-16T05:28:11.052Z,16.93
2023-05-16T05:30:44.172Z,17.04
2023-05-16T05:33:19.694Z,17.13
2023-05-16T05:35:54.392Z,17.25
2023-05-16T05:38:27.366Z,17.35
2023-05-16T05:41:00.174Z,17.46
2023-05-16T05:43:33.380Z,17.56
2023-05-16T05:46:06.990Z,17.63
2023-05-16T05:48:39.887Z,17.70
2023-05-16T05:51:14.554Z,17.77
2023-05-16T05:53:47.652Z,17.88
2023-05-16T05:56:21.641Z,17.99
2023-05-16T05:58:54.351Z,18.08
2023-05-16T06:01:27.608Z,18.18
2023-05-16T06:04:02.038Z,18.26
2023-05-16T06:06:34.958Z,18.36
2023-05-16T06:09:07.733Z,18.46
2023-05-16T06:11:41.334Z,18.53
2023-05-16T06:14:16.547Z,18.58
2023-05-16T06:16:49.315Z,18.62
2023-05-16T06:19:22.253Z,18.72
2023-05-16T06:21:55.391Z,18.83
2023-05-16T06:24:30.134Z,18.94
2023-05-16T06:27:02.889Z,19.07
2023-05-16T06:29:35.853Z,19.21
2023-05-16T06:32:11.666Z,19.30
2023-05-16T06:34:43.901Z,19.42
2023-05-16T06:37:17.361Z,19.56
2023-05-16T06:39:50.304Z,19.68
2023-05-16T06:42:23.549Z,19.77
2023-05-16T06:44:56.263Z,19.87
2023-05-16T06:47:29.090Z,19.93
2023-05-16T06:50:02.071Z,19.97
2023-05-16T06:52:35.300Z,20.05
2023-05-16T06:55:08.719Z,20.05
2023-05-16T06:57:41.782Z,20.08
2023-05-16T07:00:15.739Z,20.15
2023-05-16T07:02:47.962Z,20.23
2023-05-16T07:05:20.925Z,20.30
2023-05-16T07:07:55.126Z,20.35
2023-05-16T07:10:27.968Z,20.44
2023-05-16T07:13:01.855Z,20.54
2023-05-16T07:15:34.435Z,20.68
2023-05-16T07:18:07.149Z,20.80
2023-05-16T07:20:40.042Z,20.89
2023-05-16T07:23:13.053Z,20.88
2023-05-16T07:25:45.894Z,20.84
2023-05-16T07:28:19.082Z,20.77
2023-05-16T07:30:51.973Z,20.78
2023-05-16T07:33:25.233Z,20.82
2023-05-16T07:36:12.052Z,20.88
2023-05-16T07:38:32.935Z,20.91
2023-05-16T07:41:06.636Z,20.96
2023-05-16T07:43:39.923Z,21.03
2023-05-16T07:46:14.551Z,21.08
2023-05-16T07:48:47.520Z,21.17
2023-05-16T07:51:20.503Z,21.21
2023-05-16T07:53:53.324Z,21.24
2023-05-16T07:56:26.382Z,21.25
2023-05-16T07:58:59.395Z,21.25
2023-05-16T08:01:32.544Z,21.29
2023-05-16T08:04:05.869Z,21.32
2023-05-16T08:06:38.726Z,21.35
2023-05-16T08:09:11.811Z,21.39
2023-05-16T08:11:47.866Z,21.46
2023-05-16T08:14:20.989Z,21.51
2023-05-16T08:16:54.098Z,21.53
2023-05-16T08:19:27.073Z,21.55
2023-05-16T08:22:00.387Z,21.56
2023-05-16T08:24:33.626Z,21.58
2023-05-16T08:27:06.792Z,21.59
2023-05-16T08:29:39.844Z,21.60
2023-05-16T08:32:13.037Z,21.62
2023-05-16T08:34:45.947Z,21.64
2023-05-16T08:37:18.750Z,21.66
2023-05-16T08:39:51.719Z,21.69
2023-05-16T08:42:24.981Z,21.73
2023-05-16T08:44:58.041Z,21.79
2023-05-16T08:47:34.413Z,21.79
2023-05-16T08:50:09.635Z,21.81
2023-05-16T08:52:45.492Z,21.83
2023-05-16T08:55:20.858Z,21.86
2023-05-16T08:57:54.111Z,21.88
2023-05-16T09:00:27.716Z,21.97
2023-05-16T09:03:00.887Z,21.97
2023-05-16T09:05:34.063Z,22.00
2023-05-16T09:08:07.039Z,22.00
2023-05-16T09:10:39.948Z,22.03
2023-05-16T09:13:13.479Z,22.06
2023-05-16T09:15:46.819Z,22.10
2023-05-16T09:18:19.710Z,22.13
2023-05-16T09:20:53.974Z,22.19
2023-05-16T09:23:26.110Z,22.26
2023-05-16T09:26:00.822Z,22.31
2023-05-16T09:28:34.024Z,22.38
2023-05-16T09:31:27.076Z,22.46
2023-05-16T09:34:00.471Z,22.49
2023-05-16T09:36:34.886Z,22.54
2023-05-16T09:39:09.790Z,22.60
2023-05-16T09:41:42.830Z,22.64
2023-05-16T09:44:15.926Z,22.69
2023-05-16T09:46:49.150Z,22.75
2023-05-16T09:49:22.719Z,22.81
2023-05-16T09:51:55.506Z,22.84
2023-05-16T09:54:36.170Z,22.82
2023-05-16T09:57:09.487Z,22.82
2023-05-16T09:59:43.095Z,22.87
2023-05-16T10:02:16.616Z,22.89
2023-05-16T10:04:49.804Z,22.89
2023-05-16T10:07:24.185Z,22.87
2023-05-16T10:09:58.058Z,22.82
2023-05-16T10:12:33.051Z,22.79
2023-05-16T10:15:08.134Z,22.78
2023-05-16T10:17:46.089Z,22.80
2023-05-16T10:20:19.469Z,22.83
2023-05-16T10:22:54.759Z,22.90
2023-05-16T10:25:43.359Z,22.95
2023-05-16T10:28:18.250Z,23.02
2023-05-16T10:30:51.177Z,23.10
2023-05-16T10:33:25.025Z,23.18
2023-05-16T10:35:58.519Z,23.23
2023-05-16T10:38:32.309Z,23.29
2023-05-16T10:41:05.612Z,23.34
2023-05-16T10:43:38.788Z,23.37
2023-05-16T10:46:12.948Z,23.44
2023-05-16T10:48:47.023Z,23.49
2023-05-16T10:51:39.437Z,23.55
2023-05-16T10:54:15.375Z,23.59
2023-05-16T10:56:52.751Z,23.63
2023-05-16T10:59:28.706Z,23.68
2023-05-16T11:02:01.816Z,23.72
2023-05-16T11:04:54.679Z,23.75
2023-05-16T11:07:33.583Z,23.78
2023-05-16T11:10:11.934Z,23.81
2023-05-16T11:12:52.566Z,23.81
2023-05-16T11:15:30.690Z,23.83
2023-05-16T11:18:14.164Z,23.88
2023-05-16T11:20:47.208Z,23.91
2023-05-16T11:23:23.772Z,23.92
2023-05-16T11:26:01.204Z,23.94
2023-05-16T11:28:35.239Z,23.99
2023-05-16T11:31:08.154Z,24.06
2023-05-16T11:33:42.378Z,24.15
2023-05-16T11:36:16.587Z,24.21
2023-05-16T11:38:49.593Z,24.19
2023-05-16T11:41:22.524Z,24.15
2023-05-16T11:43:55.357Z,24.15
2023-05-16T11:46:31.327Z,24.18
2023-05-16T11:49:04.955Z,24.23
2023-05-16T11:51:43.536Z,24.25
2023-05-16T11:54:16.722Z,24.30
2023-05-16T11:56:49.480Z,24.36
2023-05-16T11:59:22.598Z,24.42
2023-05-16T12:01:55.633Z,24.48
2023-05-16T12:04:28.871Z,24.54
2023-05-16T12:07:03.259Z,24.61
2023-05-16T12:09:36.840Z,24.66
2023-05-16T12:12:10.104Z,24.67
2023-05-16T12:14:44.016Z,24.67
2023-05-16T12:17:16.969Z,24.67
2023-05-16T12:19:49.857Z,24.67
2023-05-16T12:22:24.299Z,24.70
2023-05-16T12:24:57.187Z,24.69
2023-05-16T12:27:30.792Z,24.63
2023-05-16T12:30:03.984Z,24.56
2023-05-16T12:32:39.261Z,24.45
2023-05-16T12:35:13.731Z,24.28
2023-05-16T12:37:46.793Z,24.13
2023-05-16T12:40:21.144Z,24.03
2023-05-16T12:42:55.364Z,23.96
2023-05-16T12:45:32.288Z,23.99
2023-05-16T12:48:16.514Z,24.06
2023-05-16T12:50:50.053Z,24.14
2023-05-16T12:53:23.162Z,24.16
2023-05-16T12:55:56.327Z,24.16
2023-05-16T12:58:31.720Z,24.15
2023-05-16T13:01:06.319Z,24.19
2023-05-16T13:03:39.373Z,24.24
2023-05-16T13:06:12.462Z,24.25
2023-05-16T13:11:51.008Z,24.18
2023-05-16T13:14:24.044Z,24.05
2023-05-16T13:16:56.910Z,23.94
2023-05-16T13:19:31.991Z,23.84
2023-05-16T13:22:04.952Z,23.74
2023-05-16T13:24:37.813Z,23.69
2023-05-16T13:27:10.729Z,23.66
2023-05-16T13:29:43.587Z,23.74
2023-05-16T13:32:17.108Z,23.90
2023-05-16T13:34:50.007Z,24.08
2023-05-16T13:37:24.787Z,24.14
2023-05-16T13:39:57.917Z,24.09
2023-05-16T13:42:31.115Z,24.03
2023-05-16T13:45:05.849Z,24.01
2023-05-16T13:47:40.160Z,23.98
2023-05-16T13:50:13.531Z,23.94
2023-05-16T13:52:47.942Z,23.89
2023-05-16T13:55:20.818Z,23.92
2023-05-16T13:57:53.631Z,23.99
2023-05-16T14:00:42.782Z,24.05
2023-05-16T14:03:01.732Z,24.05
2023-05-16T14:05:35.632Z,24.01
2023-05-16T14:08:08.731Z,23.97
2023-05-16T14:10:41.963Z,23.93
2023-05-16T14:13:14.957Z,23.90
2023-05-16T14:15:47.876Z,23.85
2023-05-16T14:18:21.091Z,23.78
2023-05-16T14:20:55.707Z,23.70
2023-05-16T14:23:29.462Z,23.65
2023-05-16T14:26:02.794Z,23.60
2023-05-16T14:28:36.507Z,23.56
2023-05-16T14:31:09.504Z,23.53
2023-05-16T14:33:44.282Z,23.53
2023-05-16T14:36:17.341Z,23.55
2023-05-16T14:38:50.688Z,23.53
2023-05-16T14:41:23.687Z,23.53
2023-05-16T14:43:57.046Z,23.49
2023-05-16T14:46:29.881Z,23.46
2023-05-16T14:49:02.815Z,23.39
2023-05-16T14:51:36.001Z,23.28
2023-05-16T14:54:09.174Z,23.19
2023-05-16T14:56:42.177Z,23.12
2023-05-16T14:59:15.764Z,23.05
2023-05-16T15:01:48.759Z,23.01
2023-05-16T15:04:22.323Z,22.97
2023-05-16T15:06:55.776Z,22.93
2023-05-16T15:09:28.834Z,22.90
2023-05-16T15:12:02.326Z,22.87
2023-05-16T15:14:35.879Z,22.80
2023-05-16T15:17:09.414Z,22.75
2023-05-16T15:19:42.628Z,22.71
2023-05-16T15:22:15.721Z,22.68
2023-05-16T15:24:48.926Z,22.64
2023-05-16T15:27:23.016Z,22.61
2023-05-16T15:29:55.194Z,22.58
2023-05-16T15:32:28.085Z,22.54
2023-05-16T15:35:01.098Z,22.47
2023-05-16T15:37:34.240Z,22.45
2023-05-16T15:40:09.335Z,22.39
2023-05-16T15:42:49.686Z,22.36
2023-05-16T15:45:23.168Z,22.30
2023-05-16T15:47:57.065Z,22.23
2023-05-16T15:50:31.160Z,22.21
2023-05-16T15:53:04.308Z,22.17
2023-05-16T15:55:37.738Z,22.12
2023-05-16T15:58:10.943Z,22.05
2023-05-16T16:00:45.488Z,21.98
2023-05-16T16:03:18.430Z,21.92
2023-05-16T16:05:53.912Z,21.83
2023-05-16T16:08:27.208Z,21.74
2023-05-16T16:11:00.397Z,21.66
2023-05-16T16:13:34.174Z,21.58
2023-05-16T16:16:07.873Z,21.52
2023-05-16T16:18:41.385Z,21.44
2023-05-16T16:21:14.441Z,21.37
2023-05-16T16:23:47.352Z,21.30
2023-05-16T16:26:21.687Z,21.22
2023-05-16T16:28:54.578Z,21.17
2023-05-16T16:31:27.463Z,21.09
2023-05-16T16:34:00.410Z,21.03
2023-05-16T16:36:33.764Z,20.96
2023-05-16T16:39:07.035Z,20.89
2023-05-16T16:41:40.728Z,20.84
2023-05-16T16:44:14.515Z,20.77
2023-05-16T16:46:47.426Z,20.70
2023-05-16T16:49:20.256Z,20.64
2023-05-16T16:51:53.164Z,20.59
2023-05-16T16:54:26.311Z,20.54
2023-05-16T16:56:59.168Z,20.48
2023-05-16T16:59:32.331Z,20.41
2023-05-16T17:02:06.136Z,20.37
2023-05-16T17:04:38.936Z,20.34
2023-05-16T17:07:11.900Z,20.30
2023-05-16T17:09:44.760Z,20.25
2023-05-16T17:12:22.395Z,20.21
2023-05-16T17:14:56.674Z,20.18
2023-05-16T17:17:28.840Z,20.14
2023-05-16T17:20:03.284Z,20.07
2023-05-16T17:22:37.077Z,20.04
2023-05-16T17:25:10.568Z,19.98
2023-05-16T17:27:45.090Z,19.91
2023-05-16T17:30:18.934Z,19.86
2023-05-16T17:32:52.168Z,19.83
2023-05-16T17:35:25.087Z,19.78
2023-05-16T17:37:59.384Z,19.75
2023-05-16T17:40:31.375Z,19.71
2023-05-16T17:43:04.277Z,19.64
2023-05-16T17:45:38.574Z,19.58
2023-05-16T17:48:11.662Z,19.51
2023-05-16T17:50:44.982Z,19.39
2023-05-16T17:53:18.197Z,19.29
2023-05-16T17:55:51.153Z,19.19
2023-05-16T17:58:24.162Z,19.11
2023-05-16T18:00:57.169Z,19.06
2023-05-16T18:03:30.548Z,19.02
2023-05-16T18:06:03.568Z,18.97
2023-05-16T18:08:36.909Z,18.96
2023-05-16T18:11:10.367Z,18.92
2023-05-16T18:13:44.445Z,18.87
2023-05-16T18:16:17.689Z,18.78
2023-05-16T18:18:51.553Z,18.71
2023-05-16T18:21:24.599Z,18.66
2023-05-16T18:23:59.416Z,18.60
2023-05-16T18:26:32.801Z,18.53
2023-05-16T18:29:06.031Z,18.46
2023-05-16T18:31:42.314Z,18.39
2023-05-16T18:34:15.166Z,18.31
2023-05-16T18:36:49.053Z,18.24
2023-05-16T18:39:22.371Z,18.18
2023-05-16T18:41:55.347Z,18.13
2023-05-16T18:44:29.239Z,18.09
2023-05-16T18:47:02.305Z,18.04
2023-05-16T18:49:36.912Z,17.96
2023-05-16T18:52:10.815Z,17.87
2023-05-16T18:54:43.840Z,17.80
2023-05-16T18:57:16.975Z,17.76
2023-05-16T18:59:52.143Z,17.68
2023-05-16T19:02:37.938Z,17.62
2023-05-16T19:05:01.307Z,17.55
2023-05-16T19:07:33.865Z,17.49
2023-05-16T19:10:07.828Z,17.44
2023-05-16T19:12:41.109Z,17.38
2023-05-16T19:15:14.243Z,17.33
2023-05-16T19:17:47.585Z,17.29
2023-05-16T19:20:20.555Z,17.25
2023-05-16T19:22:53.603Z,17.18
2023-05-16T19:25:27.405Z,17.09
2023-05-16T19:28:00.208Z,17.00
2023-05-16T19:30:33.396Z,16.92
2023-05-16T19:33:06.522Z,16.82
2023-05-16T19:35:40.123Z,16.77
2023-05-16T19:38:12.956Z,16.73
2023-05-16T19:40:46.130Z,16.69
2023-05-16T19:43:19.479Z,16.63
2023-05-16T19:45:52.502Z,16.58
2023-05-16T19:48:25.963Z,16.50
2023-05-16T19:50:58.888Z,16.42
2023-05-16T19:53:31.830Z,16.34
2023-05-16T19:56:05.023Z,16.27
2023-05-16T19:58:38.065Z,16.24
2023-05-16T20:01:11.750Z,16.22
2023-05-16T20:03:44.596Z,16.16
2023-05-16T20:06:17.549Z,16.12
2023-05-16T20:08:50.334Z,16.06
2023-05-16T20:11:23.945Z,16.01
2023-05-16T20:13:58.449Z,15.96
2023-05-16T20:16:30.429Z,15.92
2023-05-16T20:19:03.125Z,15.90
2023-05-16T20:21:36.202Z,15.87
2023-05-16T20:24:09.331Z,15.84
2023-05-16T20:26:42.998Z,15.81
2023-05-16T20:29:16.072Z,15.78
2023-05-16T20:31:48.960Z,15.74
2023-05-16T20:34:21.898Z,15.71
2023-05-16T20:36:54.743Z,15.65
2023-05-16T20:39:29.185Z,15.60
2023-05-16T20:42:02.341Z,15.54
2023-05-16T20:44:35.406Z,15.46
2023-05-16T20:47:09.231Z,15.42
2023-05-16T20:49:42.390Z,15.36
2023-05-16T20:52:15.243Z,15.33
2023-05-16T20:54:48.256Z,15.31
2023-05-16T20:57:22.137Z,15.26
2023-05-16T20:59:55.022Z,15.17
2023-05-16T21:02:27.935Z,15.14
2023-05-16T21:05:14.450Z,15.10
2023-05-16T21:07:36.125Z,15.04
2023-05-16T21:10:10.308Z,14.99
2023-05-16T21:12:43.214Z,14.98
2023-05-16T21:15:16.038Z,14.97
2023-05-16T21:17:48.952Z,14.96
2023-05-16T21:20:22.281Z,14.91
2023-05-16T21:22:55.304Z,14.88
2023-05-16T21:25:28.310Z,14.82
2023-05-16T21:28:01.912Z,14.79
2023-05-16T21:30:34.975Z,14.79
2023-05-16T21:33:08.026Z,14.77
2023-05-16T21:35:41.299Z,14.72
2023-05-16T21:38:14.346Z,14.66
2023-05-16T21:40:47.215Z,14.62
2023-05-16T21:43:20.215Z,14.58
2023-05-16T21:45:53.028Z,14.54
2023-05-16T21:48:26.015Z,14.51
2023-05-16T21:50:59.024Z,14.51
2023-05-16T21:53:32.012Z,14.45
2023-05-16T21:56:05.317Z,14.40
2023-05-16T21:58:39.121Z,14.32
2023-05-16T22:01:12.362Z,14.25
2023-05-16T22:03:45.469Z,14.15
2023-05-16T22:06:20.201Z,14.06
2023-05-16T22:08:54.915Z,13.98
2023-05-16T22:11:27.790Z,13.90
2023-05-16T22:14:00.718Z,13.82
2023-05-16T22:16:33.656Z,13.79
2023-05-16T22:19:07.018Z,13.78
2023-05-16T22:21:39.987Z,13.79
2023-05-16T22:24:12.940Z,13.80
2023-05-16T22:26:45.868Z,13.80
2023-05-16T22:29:18.756Z,13.78
2023-05-16T22:31:51.635Z,13.77
2023-05-16T22:34:24.616Z,13.77
2023-05-16T22:36:57.472Z,13.75
2023-05-16T22:39:30.328Z,13.75
2023-05-16T22:42:03.897Z,13.75
2023-05-16T22:44:37.086Z,13.75
2023-05-16T22:47:10.033Z,13.70
2023-05-16T22:49:42.914Z,13.62
2023-05-16T22:52:15.939Z,13.54
2023-05-16T22:54:49.298Z,13.47
2023-05-16T22:57:22.254Z,13.43
2023-05-16T22:59:56.237Z,13.37
2023-05-16T23:02:29.521Z,13.33
2023-05-16T23:05:02.669Z,13.30
2023-05-16T23:07:36.290Z,13.29
2023-05-16T23:10:10.655Z,13.26
2023-05-16T23:12:43.886Z,13.25
2023-05-16T23:15:16.856Z,13.23
2023-05-16T23:17:50.073Z,13.19
2023-05-16T23:20:23.374Z,13.16
2023-05-16T23:22:56.154Z,13.14
2023-05-16T23:25:29.657Z,13.13
2023-05-16T23:28:02.669Z,13.10
2023-05-16T23:30:36.391Z,13.08
2023-05-16T23:33:09.124Z,13.06
2023-05-16T23:35:42.022Z,13.01
2023-05-16T23:38:14.831Z,12.96
2023-05-16T23:40:47.710Z,12.91
2023-05-16T23:43:21.375Z,12.83
2023-05-16T23:45:54.513Z,12.78
2023-05-16T23:48:27.432Z,12.74
2023-05-16T23:51:02.803Z,12.69
2023-05-16T23:53:38.608Z,12.62
2023-05-16T23:56:11.981Z,12.58
2023-05-16T23:58:44.744Z,12.53
